Time;durP1;ratioP1;P1;durP2;ratioP2;P2;SDS_P1;SDS_P2;PMS_P1;PMS_P2;Temp;Humidity;BMP_temperature;BMP_pressure;BME280_temperature;BME280_humidity;BME280_pressure;Samples;Min_cycle;Max_cycle;Signal;HPM_P1;HPM_P2
2022/04/01 00:02:11;;;;;;;19.40;11.50;;;6.60;99.90;;;;;;5129748;28;20961;-78
2022/04/01 00:04:56;;;;;;;12.17;9.77;;;6.60;99.90;;;;;;5128330;28;20383;-80
2022/04/01 00:07:41;;;;;;;11.20;9.97;;;6.60;99.90;;;;;;5120140;28;20383;-80
2022/04/01 00:10:26;;;;;;;11.70;9.20;;;6.60;99.90;;;;;;5119844;28;20418;-80
2022/04/01 00:13:13;;;;;;;13.43;9.33;;;6.60;99.90;;;;;;5120382;28;20395;-80
2022/04/01 00:15:59;;;;;;;10.60;9.23;;;6.60;99.90;;;;;;5120204;28;20383;-80
2022/04/01 00:18:43;;;;;;;10.50;9.50;;;6.60;99.90;;;;;;5119677;28;20887;-80
2022/04/01 00:21:28;;;;;;;14.57;9.70;;;6.60;99.90;;;;;;5119844;28;20383;-79
2022/04/01 00:24:13;;;;;;;11.23;8.33;;;6.70;99.90;;;;;;5119730;28;20436;-81
2022/04/01 00:26:58;;;;;;;12.17;9.93;;;6.70;99.90;;;;;;5104510;28;20918;-80
2022/04/01 00:29:42;;;;;;;16.00;11.17;;;6.70;99.90;;;;;;5119936;28;20796;-81
2022/04/01 00:32:30;;;;;;;12.90;10.47;;;6.60;99.90;;;;;;5119313;28;20383;-80
2022/04/01 00:35:15;;;;;;;12.20;9.70;;;6.50;99.90;;;;;;5121762;28;20379;-80
2022/04/01 00:37:59;;;;;;;12.57;9.97;;;6.60;99.90;;;;;;5111858;28;20891;-81
2022/04/01 00:40:44;;;;;;;14.50;10.20;;;6.60;99.90;;;;;;5131295;28;20379;-81
2022/04/01 00:43:30;;;;;;;12.10;9.13;;;6.50;99.90;;;;;;5134209;28;21003;-81
2022/04/01 00:46:15;;;;;;;11.30;9.80;;;6.50;99.90;;;;;;5126684;28;20387;-80
2022/04/01 00:48:59;;;;;;;15.57;11.97;;;6.50;99.90;;;;;;5127045;28;20383;-80
2022/04/01 00:51:45;;;;;;;13.97;10.87;;;6.50;99.90;;;;;;5123720;28;20505;-81
2022/04/01 00:54:29;;;;;;;16.33;11.63;;;6.40;99.90;;;;;;5123358;28;20415;-80
2022/04/01 00:57:14;;;;;;;14.97;10.73;;;6.40;99.90;;;;;;5107696;28;20739;-80
2022/04/01 00:59:59;;;;;;;12.97;10.20;;;6.50;99.90;;;;;;5123830;28;20383;-80
2022/04/01 01:02:43;;;;;;;13.10;10.07;;;6.40;99.90;;;;;;5107844;28;20442;-80
2022/04/01 01:05:30;;;;;;;16.60;11.20;;;6.40;99.90;;;;;;5124899;28;20461;-81
2022/04/01 01:08:15;;;;;;;18.17;10.77;;;6.40;99.90;;;;;;5123740;28;20406;-80
2022/04/01 01:11:01;;;;;;;13.30;10.83;;;6.40;99.90;;;;;;5083024;28;20465;-79
2022/04/01 01:13:46;;;;;;;16.43;11.47;;;6.40;99.90;;;;;;5083900;28;20476;-79
2022/04/01 01:16:31;;;;;;;12.13;9.13;;;6.50;99.90;;;;;;5083167;28;20463;-80
2022/04/01 01:19:17;;;;;;;12.90;10.17;;;6.40;99.90;;;;;;5082931;28;20393;-81
2022/04/01 01:22:03;;;;;;;15.30;10.37;;;6.40;99.90;;;;;;5082923;28;20396;-81
2022/04/01 01:24:47;;;;;;;20.57;11.00;;;6.40;99.90;;;;;;5083674;28;20376;-81
2022/04/01 01:27:32;;;;;;;15.17;10.13;;;6.50;99.90;;;;;;5082384;28;20745;-81
2022/04/01 01:30:17;;;;;;;14.70;11.03;;;6.40;99.90;;;;;;5085153;28;20401;-80
2022/04/01 01:33:01;;;;;;;14.77;12.07;;;6.40;99.90;;;;;;5086957;28;20439;-81
2022/04/01 01:35:46;;;;;;;16.13;12.50;;;6.40;99.90;;;;;;5081633;28;20456;-80
2022/04/01 01:38:32;;;;;;;17.30;12.40;;;6.40;99.90;;;;;;5082439;28;20389;-81
2022/04/01 01:41:17;;;;;;;15.93;10.50;;;6.40;99.90;;;;;;5081471;28;20392;-81
2022/04/01 01:44:04;;;;;;;17.83;10.70;;;6.50;99.90;;;;;;5080772;28;20436;-81
2022/04/01 01:46:48;;;;;;;12.37;10.90;;;6.40;99.90;;;;;;5081494;28;20381;-81
2022/04/01 01:49:34;;;;;;;16.33;11.00;;;6.40;99.90;;;;;;5081397;28;20392;-81
2022/04/01 01:55:20;;;;;;;15.63;10.77;;;6.40;99.90;;;;;;5083961;28;20830;-80
2022/04/01 01:58:05;;;;;;;15.70;11.03;;;6.40;99.90;;;;;;5081261;28;20412;-80
2022/04/01 02:00:50;;;;;;;16.73;10.13;;;6.40;99.90;;;;;;5081399;28;20782;-80
2022/04/01 02:03:34;;;;;;;12.43;9.13;;;6.40;99.90;;;;;;5079046;28;20464;-80
2022/04/01 02:06:21;;;;;;;19.93;12.47;;;6.40;99.90;;;;;;5081770;28;20905;-80
2022/04/01 02:09:07;;;;;;;12.50;9.13;;;6.40;99.90;;;;;;5086791;28;20771;-80
2022/04/01 02:11:52;;;;;;;16.70;11.07;;;6.40;99.90;;;;;;5121313;28;20387;-80
2022/04/01 02:14:36;;;;;;;15.80;10.77;;;6.40;99.90;;;;;;5122363;28;20375;-80
2022/04/01 02:17:21;;;;;;;12.73;10.90;;;6.40;99.90;;;;;;5121811;28;20457;-80
2022/04/01 02:20:09;;;;;;;16.03;12.00;;;6.40;99.90;;;;;;5121496;28;20379;-79
2022/04/01 02:22:54;;;;;;;12.67;9.60;;;6.40;99.90;;;;;;5121804;28;20434;-80
2022/04/01 02:25:40;;;;;;;14.53;9.70;;;6.40;99.90;;;;;;5121881;28;20376;-80
2022/04/01 02:28:24;;;;;;;12.83;9.73;;;6.40;99.90;;;;;;5122384;28;20440;-80
2022/04/01 02:31:11;;;;;;;10.57;9.43;;;6.40;99.90;;;;;;5105992;28;20384;-80
2022/04/01 02:33:55;;;;;;;12.93;9.83;;;6.40;99.90;;;;;;5106526;28;20391;-81
2022/04/01 02:36:40;;;;;;;14.10;9.27;;;6.40;99.90;;;;;;5122656;28;20387;-80
2022/04/01 02:39:25;;;;;;;15.47;9.90;;;6.40;99.90;;;;;;5122493;28;20444;-80
2022/04/01 02:42:10;;;;;;;12.70;9.10;;;6.40;99.90;;;;;;5137497;28;20500;-79
2022/04/01 02:44:56;;;;;;;12.40;9.47;;;6.40;99.90;;;;;;5122215;28;20355;-79
2022/04/01 02:47:41;;;;;;;15.43;11.13;;;6.40;99.90;;;;;;5122858;28;20398;-79
2022/04/01 02:50:47;;;;;;;12.20;9.20;;;6.40;99.90;;;;;;5136162;28;20391;-78
2022/04/01 02:53:33;;;;;;;10.50;8.07;;;6.40;99.90;;;;;;5088603;28;20399;-80
2022/04/01 02:56:17;;;;;;;13.80;9.10;;;6.40;99.90;;;;;;5080590;28;20421;-81
2022/04/01 02:59:06;;;;;;;10.60;8.53;;;6.40;99.90;;;;;;5080450;28;20436;-80
2022/04/01 03:01:51;;;;;;;9.63;8.63;;;6.50;99.90;;;;;;5080494;28;20424;-80
2022/04/01 03:04:36;;;;;;;10.43;8.17;;;6.30;99.90;;;;;;5065793;28;20389;-80
2022/04/01 03:07:21;;;;;;;12.50;9.20;;;6.40;99.90;;;;;;5083172;28;20408;-78
2022/04/01 03:10:06;;;;;;;13.10;10.67;;;6.40;99.90;;;;;;5087476;28;20516;-79
2022/04/01 03:12:51;;;;;;;12.87;9.90;;;6.50;99.90;;;;;;5088502;28;20394;-79
2022/04/01 03:15:37;;;;;;;12.00;9.17;;;6.40;99.90;;;;;;5089007;28;20428;-79
2022/04/01 03:18:21;;;;;;;19.47;10.57;;;6.40;99.90;;;;;;5085399;28;20760;-80
2022/04/01 03:21:09;;;;;;;14.97;9.60;;;6.50;99.90;;;;;;5079171;28;20429;-81
2022/04/01 03:23:54;;;;;;;10.37;9.03;;;6.50;99.90;;;;;;5064887;28;20435;-81
2022/04/01 03:26:39;;;;;;;13.20;9.53;;;6.50;99.90;;;;;;5078823;28;20416;-81
2022/04/01 03:29:23;;;;;;;11.50;9.67;;;6.40;99.90;;;;;;5064440;28;20773;-80
2022/04/01 03:32:10;;;;;;;11.87;9.53;;;6.40;99.90;;;;;;5079361;28;20381;-80
2022/04/01 03:34:55;;;;;;;11.37;8.90;;;6.40;99.90;;;;;;5078323;28;20463;-80
2022/04/01 03:37:39;;;;;;;10.80;8.90;;;6.40;99.90;;;;;;5080983;28;20412;-80
2022/04/01 03:40:28;;;;;;;14.68;11.50;;;6.40;99.90;;;;;;5084639;28;20409;-80
2022/04/01 03:43:12;;;;;;;13.50;10.17;;;6.40;99.90;;;;;;5079641;28;20194;-79
2022/04/01 03:45:58;;;;;;;12.00;10.80;;;6.40;99.90;;;;;;5071973;28;20423;-78
2022/04/01 03:48:52;;;;;;;12.50;9.37;;;6.50;99.90;;;;;;5057953;28;20532;-80
2022/04/01 03:51:39;;;;;;;11.00;8.10;;;6.50;99.90;;;;;;5060162;28;20417;-81
2022/04/01 03:54:25;;;;;;;9.43;7.00;;;6.50;99.90;;;;;;5058789;28;20425;-81
2022/04/01 03:57:11;;;;;;;10.20;7.83;;;6.50;99.90;;;;;;5064197;28;20405;-80
2022/04/01 03:59:57;;;;;;;13.33;8.40;;;6.50;99.90;;;;;;5059557;28;20712;-81
2022/04/01 04:02:43;;;;;;;9.13;8.27;;;6.50;99.90;;;;;;5059558;28;20481;-80
2022/04/01 04:05:30;;;;;;;11.20;8.97;;;6.50;99.90;;;;;;5059596;28;20404;-80
2022/04/01 04:08:19;;;;;;;11.90;8.90;;;6.50;99.90;;;;;;5060733;28;20426;-80
2022/04/01 04:11:04;;;;;;;9.67;8.00;;;6.50;99.90;;;;;;5098488;28;20455;-81
2022/04/01 04:13:51;;;;;;;9.47;8.43;;;6.50;99.90;;;;;;5087152;28;20403;-80
2022/04/01 04:16:47;;;;;;;13.40;9.87;;;6.40;99.90;;;;;;5102228;28;20375;-80
2022/04/01 04:19:59;;;;;;;12.20;7.90;;;6.50;99.90;;;;;;5103276;28;20434;-79
2022/04/01 04:22:56;;;;;;;9.17;7.57;;;6.50;99.90;;;;;;5091126;28;20431;-80
2022/04/01 04:25:53;;;;;;;8.70;7.67;;;6.50;99.90;;;;;;5088960;28;20904;-78
2022/04/01 04:28:41;;;;;;;13.80;9.63;;;6.50;99.90;;;;;;5105811;28;20460;-79
2022/04/01 04:31:29;;;;;;;12.27;8.27;;;6.50;99.90;;;;;;5111342;28;20384;-79
2022/04/01 04:34:18;;;;;;;12.57;8.70;;;6.40;99.90;;;;;;5031986;28;20400;-80
2022/04/01 04:37:08;;;;;;;11.10;8.43;;;6.40;99.90;;;;;;5095308;28;20532;-79
2022/04/01 04:39:53;;;;;;;12.10;9.10;;;6.30;99.90;;;;;;5113719;28;20399;-77
2022/04/01 04:42:44;;;;;;;11.87;8.23;;;6.30;99.90;;;;;;5097613;28;20440;-80
2022/04/01 04:45:29;;;;;;;9.47;6.63;;;6.20;99.90;;;;;;5115612;28;20405;-79
2022/04/01 04:48:16;;;;;;;8.60;7.20;;;6.10;99.90;;;;;;5116380;28;20381;-79
2022/04/01 04:51:03;;;;;;;8.57;7.67;;;6.20;99.90;;;;;;5114286;28;20438;-80
2022/04/01 04:53:47;;;;;;;9.67;8.07;;;6.20;99.90;;;;;;5117673;28;20399;-79
2022/04/01 04:56:33;;;;;;;7.63;6.83;;;6.20;99.90;;;;;;5112204;28;20451;-79
2022/04/01 04:59:18;;;;;;;8.53;7.53;;;6.20;99.90;;;;;;5108212;28;20396;-79
2022/04/01 05:02:05;;;;;;;7.60;6.60;;;6.20;99.90;;;;;;5081082;28;20500;-79
2022/04/01 05:05:04;;;;;;;10.03;6.47;;;6.20;99.90;;;;;;5107987;28;20423;-80
2022/04/01 05:08:07;;;;;;;8.50;7.10;;;6.20;99.90;;;;;;5117847;28;20442;-78
2022/04/01 05:11:02;;;;;;;6.70;5.90;;;6.10;99.90;;;;;;5058985;28;1166483;-80
2022/04/01 05:14:13;;;;;;;5.80;5.13;;;6.00;99.90;;;;;;5109376;28;20201;-78
2022/04/01 05:17:04;;;;;;;8.33;6.23;;;6.00;99.90;;;;;;5104810;28;20819;-80
2022/04/01 05:19:58;;;;;;;6.90;5.87;;;6.10;99.90;;;;;;5098589;28;20428;-78
2022/04/01 05:22:56;;;;;;;8.67;6.90;;;6.00;99.90;;;;;;5094540;28;20964;-80
2022/04/01 05:25:45;;;;;;;6.97;5.97;;;6.00;99.90;;;;;;5099736;28;20464;-80
2022/04/01 05:28:34;;;;;;;9.00;6.67;;;6.00;99.90;;;;;;5069759;28;20490;-80
2022/04/01 05:31:42;;;;;;;6.43;5.60;;;6.00;99.90;;;;;;5083815;28;20454;-80
2022/04/01 05:34:46;;;;;;;7.47;6.67;;;6.00;99.90;;;;;;5089514;28;20433;-80
2022/04/01 05:37:34;;;;;;;8.00;5.77;;;6.00;99.90;;;;;;5084692;28;20416;-80
2022/04/01 05:40:21;;;;;;;7.30;5.53;;;6.00;99.90;;;;;;5094450;28;20451;-80
2022/04/01 05:43:06;;;;;;;8.87;8.07;;;6.00;99.90;;;;;;5102456;28;20460;-80
2022/04/01 05:45:53;;;;;;;7.33;6.57;;;5.90;99.90;;;;;;5067979;28;20409;-80
2022/04/01 05:48:40;;;;;;;5.50;5.00;;;5.90;99.90;;;;;;5086232;28;20537;-80
2022/04/01 05:51:27;;;;;;;7.50;5.97;;;5.90;99.90;;;;;;5099749;28;20430;-80
2022/04/01 05:54:14;;;;;;;8.23;6.37;;;5.90;99.90;;;;;;5084668;28;20407;-80
2022/04/01 05:57:02;;;;;;;6.70;5.53;;;5.90;99.90;;;;;;5072026;28;20485;-80
2022/04/01 05:59:47;;;;;;;6.70;6.10;;;5.90;99.90;;;;;;5085732;28;20416;-81
2022/04/01 06:03:09;;;;;;;6.33;5.70;;;5.90;99.90;;;;;;5072763;28;20461;-80
2022/04/01 06:06:02;;;;;;;5.00;4.53;;;5.90;99.90;;;;;;5088178;28;20428;-80
2022/04/01 06:09:05;;;;;;;5.53;5.00;;;5.70;99.90;;;;;;5092079;28;20458;-80
2022/04/01 06:12:02;;;;;;;8.07;5.63;;;5.70;99.90;;;;;;5094699;28;20489;-80
2022/04/01 06:15:14;;;;;;;7.17;6.53;;;5.70;99.90;;;;;;5097955;28;20471;-80
2022/04/01 06:18:15;;;;;;;8.75;7.90;;;5.60;99.90;;;;;;5092028;28;20445;-79
2022/04/01 06:21:04;;;;;;;7.17;6.47;;;5.70;99.90;;;;;;5103257;28;20223;-79
2022/04/01 06:24:05;;;;;;;6.30;5.70;;;5.60;99.90;;;;;;5098550;28;20505;-80
2022/04/01 06:26:58;;;;;;;9.63;6.43;;;5.50;99.90;;;;;;5103956;28;20419;-78
2022/04/01 06:29:47;;;;;;;6.27;5.67;;;5.60;99.90;;;;;;5076534;28;20432;-79
2022/04/01 06:33:07;;;;;;;11.50;6.73;;;5.60;99.90;;;;;;5086587;28;20436;-79
2022/04/01 06:35:59;;;;;;;7.47;5.43;;;5.50;99.90;;;;;;5102529;28;20474;-77
2022/04/01 06:38:56;;;;;;;7.77;6.57;;;5.60;99.90;;;;;;5108883;28;20401;-79
2022/04/01 06:41:46;;;;;;;7.97;5.47;;;5.50;99.90;;;;;;5100681;28;20443;-80
2022/04/01 06:44:37;;;;;;;7.97;4.93;;;5.40;99.90;;;;;;5103618;28;20447;-79
2022/04/01 06:47:21;;;;;;;7.03;6.33;;;5.40;99.90;;;;;;5054602;28;20478;-80
2022/04/01 06:50:07;;;;;;;6.57;5.97;;;5.40;99.90;;;;;;5084284;28;20447;-80
2022/04/01 06:52:52;;;;;;;8.27;6.20;;;5.40;99.90;;;;;;5090114;28;20420;-80
2022/04/01 06:55:37;;;;;;;6.87;5.33;;;5.40;99.90;;;;;;5101157;28;20939;-79
2022/04/01 06:58:29;;;;;;;11.97;7.37;;;5.40;99.90;;;;;;5088475;28;20431;-80
2022/04/01 07:01:15;;;;;;;7.07;6.47;;;5.30;99.90;;;;;;5086952;28;20516;-80
2022/04/01 07:03:59;;;;;;;9.50;6.80;;;5.40;99.90;;;;;;5088364;28;20463;-78
2022/04/01 07:06:44;;;;;;;11.07;8.63;;;5.40;99.90;;;;;;5086401;28;20420;-80
2022/04/01 07:09:29;;;;;;;9.20;7.00;;;5.40;99.90;;;;;;5089811;28;20601;-79
2022/04/01 07:12:13;;;;;;;11.63;9.50;;;5.30;99.90;;;;;;5086180;28;20566;-80
2022/04/01 07:14:59;;;;;;;10.83;6.70;;;5.20;99.90;;;;;;5090181;28;20463;-81
2022/04/01 07:17:44;;;;;;;9.70;8.70;;;5.30;99.90;;;;;;5086470;28;20440;-81
2022/04/01 07:20:29;;;;;;;10.93;7.40;;;5.40;99.90;;;;;;5065965;28;20415;-77
2022/04/01 07:23:15;;;;;;;14.07;7.10;;;5.50;99.90;;;;;;5071316;28;20804;-81
2022/04/01 07:25:59;;;;;;;8.90;6.40;;;5.40;99.90;;;;;;5070433;28;20423;-80
2022/04/01 07:28:44;;;;;;;9.43;7.67;;;5.40;99.90;;;;;;5071080;28;21002;-79
2022/04/01 07:34:31;;;;;;;7.47;6.77;;;5.40;99.90;;;;;;5090659;28;20481;-80
2022/04/01 07:37:15;;;;;;;13.03;10.03;;;5.40;99.90;;;;;;5095188;28;20416;-80
2022/04/01 07:40:01;;;;;;;11.10;7.80;;;5.40;99.90;;;;;;5073698;28;20459;-80
2022/04/01 07:42:48;;;;;;;9.67;8.80;;;5.40;99.90;;;;;;5096389;28;20533;-79
2022/04/01 07:45:34;;;;;;;11.70;7.93;;;5.30;99.90;;;;;;5088102;28;20416;-79
2022/04/01 07:48:21;;;;;;;7.37;6.67;;;5.30;99.90;;;;;;5087434;28;20435;-80
2022/04/01 07:51:06;;;;;;;9.70;7.53;;;5.30;99.90;;;;;;5086048;28;20863;-80
2022/04/01 07:53:50;;;;;;;7.70;6.90;;;5.40;99.90;;;;;;5088498;28;20447;-79
2022/04/01 07:56:36;;;;;;;9.37;6.93;;;5.40;99.90;;;;;;5041485;28;20467;-80
2022/04/01 07:59:24;;;;;;;9.10;7.80;;;5.40;99.90;;;;;;5087034;28;20420;-80
2022/04/01 08:02:08;;;;;;;9.60;6.83;;;5.40;99.90;;;;;;5086978;28;20435;-80
2022/04/01 08:04:53;;;;;;;11.07;7.53;;;5.40;99.90;;;;;;5089794;28;20455;-79
2022/04/01 08:07:38;;;;;;;14.40;7.07;;;5.40;99.90;;;;;;5086407;28;20456;-80
2022/04/01 08:10:23;;;;;;;7.90;6.60;;;5.40;99.90;;;;;;5091644;28;20899;-80
2022/04/01 08:13:09;;;;;;;7.53;6.80;;;5.40;99.90;;;;;;5074995;28;20455;-79
2022/04/01 08:15:55;;;;;;;7.20;6.50;;;5.40;99.90;;;;;;5069042;28;20423;-81
2022/04/01 08:18:39;;;;;;;11.23;5.83;;;5.30;99.90;;;;;;5085149;28;20431;-80
2022/04/01 08:21:24;;;;;;;11.10;8.50;;;5.30;99.90;;;;;;5057192;28;20963;-80
2022/04/01 08:24:09;;;;;;;11.40;8.70;;;5.20;99.90;;;;;;5086491;28;20506;-79
2022/04/01 08:26:55;;;;;;;9.77;8.73;;;5.30;99.90;;;;;;5072559;28;20835;-80
2022/04/01 08:29:40;;;;;;;8.13;7.30;;;5.20;99.90;;;;;;5070975;28;20432;-79
2022/04/01 08:32:26;;;;;;;12.30;9.33;;;5.30;99.90;;;;;;5102756;28;20502;-80
2022/04/01 08:35:10;;;;;;;13.70;8.20;;;5.20;99.90;;;;;;5088674;28;20424;-80
2022/04/01 08:37:57;;;;;;;8.13;7.33;;;5.30;99.90;;;;;;5072423;28;20475;-80
2022/04/01 08:40:42;;;;;;;10.90;7.70;;;5.30;99.90;;;;;;5097568;28;20556;-80
2022/04/01 08:43:31;;;;;;;9.53;6.80;;;5.20;99.90;;;;;;5092929;28;20455;-79
2022/04/01 08:46:20;;;;;;;12.50;8.47;;;5.20;99.90;;;;;;5093226;28;20419;-80
2022/04/01 08:49:06;;;;;;;10.70;6.53;;;5.10;99.90;;;;;;5059026;28;20428;-83
2022/04/01 08:51:51;;;;;;;6.20;5.60;;;5.10;99.90;;;;;;5092219;28;20420;-81
2022/04/01 08:54:36;;;;;;;6.00;5.20;;;5.00;99.90;;;;;;5063660;28;20546;-82
2022/04/01 08:57:21;;;;;;;9.93;8.60;;;5.00;99.90;;;;;;5071767;28;20427;-81
2022/04/01 09:00:35;;;;;;;11.83;7.47;;;5.00;99.90;;;;;;5089335;28;20493;-81
2022/04/01 09:03:22;;;;;;;7.77;6.00;;;4.90;99.90;;;;;;5092084;28;20490;-83
2022/04/01 09:06:07;;;;;;;8.53;5.97;;;4.90;99.90;;;;;;5094848;28;20493;-83
2022/04/01 09:08:58;;;;;;;12.77;8.37;;;5.00;99.90;;;;;;5091600;28;21017;-81
2022/04/01 09:12:05;;;;;;;9.47;8.47;;;4.90;99.90;;;;;;5081329;28;20839;-80
2022/04/01 09:14:53;;;;;;;8.47;7.43;;;4.80;99.90;;;;;;5091412;28;20444;-83
2022/04/01 09:17:44;;;;;;;6.80;6.10;;;4.80;99.90;;;;;;5090859;28;20551;-80
2022/04/01 09:20:43;;;;;;;11.63;8.67;;;4.90;99.90;;;;;;5101527;28;20958;-82
2022/04/01 09:23:28;;;;;;;10.13;7.23;;;4.80;99.90;;;;;;5095404;28;21074;-82
2022/04/01 09:26:13;;;;;;;10.17;6.87;;;4.90;99.90;;;;;;5092066;28;20954;-82
2022/04/01 09:28:59;;;;;;;7.20;6.60;;;4.80;99.90;;;;;;5095343;28;20424;-81
2022/04/01 09:31:49;;;;;;;9.60;6.53;;;4.90;99.90;;;;;;5089529;28;20466;-80
2022/04/01 09:34:40;;;;;;;7.30;6.60;;;4.90;99.90;;;;;;5092607;28;20430;-81
2022/04/01 09:37:37;;;;;;;7.67;6.57;;;4.90;99.90;;;;;;5093427;28;20428;-82
2022/04/01 09:40:23;;;;;;;10.60;8.97;;;4.90;99.90;;;;;;5092424;28;20447;-83
2022/04/01 09:43:09;;;;;;;8.70;7.10;;;4.90;99.90;;;;;;5073842;28;21001;-84
2022/04/01 09:45:53;;;;;;;10.33;7.40;;;5.00;99.90;;;;;;5076457;28;20427;-82
2022/04/01 09:48:41;;;;;;;10.80;6.93;;;5.00;99.90;;;;;;5076423;28;20423;-83
2022/04/01 09:51:30;;;;;;;8.97;7.20;;;4.90;99.90;;;;;;5089640;28;20427;-81
2022/04/01 09:54:15;;;;;;;10.23;7.77;;;4.90;99.90;;;;;;5092784;28;20512;-79
2022/04/01 09:57:00;;;;;;;8.10;7.30;;;4.90;99.90;;;;;;5093066;28;20473;-83
2022/04/01 09:59:46;;;;;;;9.37;7.30;;;4.90;99.90;;;;;;5091221;28;20438;-79
2022/04/01 10:02:30;;;;;;;14.03;8.60;;;4.80;99.90;;;;;;5103661;28;20466;-80
2022/04/01 10:05:15;;;;;;;9.53;6.70;;;4.80;99.90;;;;;;5102780;28;20462;-78
2022/04/01 10:08:02;;;;;;;8.17;7.33;;;4.80;99.90;;;;;;5100767;28;20431;-81
2022/04/01 10:10:48;;;;;;;10.70;7.60;;;4.70;99.90;;;;;;5099230;28;20807;-82
2022/04/01 10:13:34;;;;;;;10.43;8.27;;;4.70;99.90;;;;;;5094064;28;20415;-83
2022/04/01 10:16:20;;;;;;;7.27;6.53;;;4.70;99.90;;;;;;5089004;28;20559;-82
2022/04/01 10:19:11;;;;;;;11.27;7.50;;;4.60;99.90;;;;;;5088497;28;20542;-81
2022/04/01 10:21:57;;;;;;;7.60;6.73;;;4.60;99.90;;;;;;5090636;28;20444;-82
2022/04/01 10:24:52;;;;;;;11.53;6.83;;;4.60;99.90;;;;;;5087114;28;20443;-82
2022/04/01 10:27:40;;;;;;;9.53;8.10;;;4.60;99.90;;;;;;5084841;28;20455;-82
2022/04/01 10:30:26;;;;;;;9.47;8.20;;;4.60;99.90;;;;;;5068000;28;20503;-83
2022/04/01 10:33:22;;;;;;;12.93;7.83;;;4.70;99.90;;;;;;5084189;28;20432;-82
2022/04/01 10:36:15;;;;;;;10.77;7.00;;;4.70;99.90;;;;;;5091325;28;20454;-79
2022/04/01 10:39:06;;;;;;;9.33;7.27;;;4.60;99.90;;;;;;5086517;28;20448;-81
2022/04/01 10:42:06;;;;;;;12.70;6.43;;;4.60;99.90;;;;;;5091479;28;20427;-81
2022/04/01 10:44:56;;;;;;;9.97;6.80;;;4.60;99.90;;;;;;5089391;28;20946;-82
2022/04/01 10:51:42;;;;;;;11.93;8.23;;;4.60;99.90;;;;;;5076354;28;20444;-81
2022/04/01 10:54:36;;;;;;;9.37;8.30;;;4.60;99.90;;;;;;5081104;28;20424;-82
2022/04/01 10:57:35;;;;;;;12.40;9.50;;;4.60;99.90;;;;;;5087154;28;20456;-83
2022/04/01 11:00:19;;;;;;;10.50;8.90;;;4.70;99.90;;;;;;5090974;28;20533;-82
2022/04/01 11:03:24;;;;;;;8.10;7.30;;;4.80;99.90;;;;;;5104514;27;20491;-80
2022/04/01 11:06:22;;;;;;;9.03;8.07;;;4.90;99.90;;;;;;5097578;28;20459;-82
2022/04/01 11:09:06;;;;;;;9.90;8.10;;;4.90;99.90;;;;;;5081486;28;21122;-82
2022/04/01 11:12:34;;;;;;;10.30;6.73;;;5.00;99.90;;;;;;5086564;28;20486;-83
2022/04/01 11:15:25;;;;;;;9.37;8.47;;;5.10;99.90;;;;;;5075451;28;20443;-82
2022/04/01 11:18:10;;;;;;;12.47;8.00;;;5.20;99.90;;;;;;5077005;28;20850;-83
2022/04/01 11:20:56;;;;;;;9.80;8.20;;;5.20;99.90;;;;;;5073696;28;21015;-82
2022/04/01 11:23:41;;;;;;;10.77;7.83;;;5.30;99.90;;;;;;5076524;28;20459;-81
2022/04/01 11:26:41;;;;;;;11.63;7.90;;;5.30;99.90;;;;;;5077700;28;20433;-81
2022/04/01 11:29:25;;;;;;;12.97;10.83;;;5.30;99.90;;;;;;5094214;28;20427;-82
2022/04/01 11:32:17;;;;;;;13.23;8.30;;;5.30;99.90;;;;;;5092736;28;20435;-82
2022/04/01 11:35:04;;;;;;;19.63;7.27;;;5.30;99.90;;;;;;5074934;28;20398;-82
2022/04/01 11:37:49;;;;;;;9.37;8.20;;;5.30;99.90;;;;;;5093853;28;20473;-82
2022/04/01 11:40:37;;;;;;;11.10;6.77;;;5.20;99.90;;;;;;5089462;28;20451;-83
2022/04/01 11:43:23;;;;;;;8.00;6.70;;;5.20;99.90;;;;;;5085252;28;20486;-82
2022/04/01 11:46:10;;;;;;;10.10;7.80;;;5.30;99.90;;;;;;5087817;28;20427;-82
2022/04/01 11:48:57;;;;;;;8.27;6.80;;;5.20;99.90;;;;;;5076065;28;20432;-81
2022/04/01 11:51:41;;;;;;;10.10;8.20;;;5.20;99.90;;;;;;5073174;28;20435;-82
2022/04/01 11:54:26;;;;;;;8.03;7.23;;;5.10;99.90;;;;;;5090554;28;20487;-83
2022/04/01 11:57:11;;;;;;;7.03;6.10;;;5.20;99.90;;;;;;5075207;28;20427;-82
2022/04/01 12:00:00;;;;;;;12.80;7.90;;;5.30;99.90;;;;;;5090368;28;20428;-82
2022/04/01 12:02:47;;;;;;;9.13;8.20;;;5.40;99.90;;;;;;5082949;28;20464;-83
2022/04/01 12:05:32;;;;;;;13.57;7.47;;;5.50;99.90;;;;;;5086572;28;20424;-82
2022/04/01 12:11:21;;;;;;;9.50;7.07;;;5.30;99.90;;;;;;5081237;28;20445;-82
2022/04/01 12:14:05;;;;;;;8.97;7.10;;;5.10;99.90;;;;;;5083154;28;20428;-82
2022/04/01 12:16:51;;;;;;;8.03;7.30;;;5.30;99.90;;;;;;5080317;28;20539;-80
2022/04/01 12:19:35;;;;;;;7.63;6.93;;;5.40;99.90;;;;;;5078150;28;20446;-80
2022/04/01 12:22:24;;;;;;;7.20;6.60;;;5.40;99.90;;;;;;5092465;28;20477;-80
2022/04/01 12:25:09;;;;;;;9.63;5.93;;;5.30;99.90;;;;;;5086481;28;20420;-80
2022/04/01 12:27:55;;;;;;;10.27;6.77;;;5.40;99.90;;;;;;5069425;28;20488;-81
2022/04/01 12:30:48;;;;;;;7.30;6.17;;;5.30;99.90;;;;;;5075663;28;20439;-82
2022/04/01 12:33:33;;;;;;;7.90;6.60;;;5.30;99.90;;;;;;5086614;28;21258;-81
2022/04/01 12:36:34;;;;;;;7.77;6.30;;;5.20;99.90;;;;;;5075547;28;20473;-82
2022/04/01 12:39:18;;;;;;;7.37;6.67;;;5.30;99.90;;;;;;5086354;28;20530;-81
2022/04/01 12:42:08;;;;;;;7.00;6.10;;;5.20;99.90;;;;;;5077757;28;20470;-82
2022/04/01 12:44:56;;;;;;;6.43;5.50;;;5.10;99.90;;;;;;5098409;28;20443;-82
2022/04/01 12:47:41;;;;;;;8.40;5.77;;;5.10;99.90;;;;;;5064948;28;20424;-81
2022/04/01 12:50:35;;;;;;;6.77;6.00;;;4.80;99.90;;;;;;5062625;28;20451;-81
2022/04/01 12:53:19;;;;;;;9.70;6.83;;;4.70;99.90;;;;;;5095751;28;20940;-81
2022/04/01 12:56:24;;;;;;;11.63;7.50;;;5.00;99.90;;;;;;5072604;28;20811;-81
2022/04/01 12:59:11;;;;;;;11.83;9.30;;;5.10;99.90;;;;;;5092864;28;21026;-79
2022/04/01 13:01:59;;;;;;;13.37;7.37;;;5.10;99.90;;;;;;5076696;28;20435;-80
2022/04/01 13:04:47;;;;;;;11.90;7.70;;;5.00;99.90;;;;;;5090193;28;20428;-81
2022/04/01 13:07:34;;;;;;;10.53;9.47;;;5.00;99.90;;;;;;5099597;28;20506;-80
2022/04/01 13:10:20;;;;;;;8.33;7.23;;;5.00;99.90;;;;;;5043126;28;20465;-77
2022/04/01 13:13:17;;;;;;;8.43;7.33;;;5.00;99.90;;;;;;5054392;28;20429;-78
2022/04/01 13:16:01;;;;;;;11.87;10.20;;;5.00;99.90;;;;;;5064286;28;20402;-78
2022/04/01 13:18:46;;;;;;;9.93;8.17;;;5.00;99.90;;;;;;5046239;28;20942;-77
2022/04/01 13:21:30;;;;;;;8.90;7.40;;;5.10;99.90;;;;;;5056281;28;20469;-80
2022/04/01 13:24:21;;;;;;;12.70;6.20;;;5.00;99.90;;;;;;5052387;28;20465;-80
2022/04/01 13:27:08;;;;;;;9.23;7.73;;;4.60;99.90;;;;;;5051556;28;20445;-78
2022/04/01 13:29:54;;;;;;;7.97;6.50;;;4.70;99.90;;;;;;5065593;28;20429;-80
2022/04/01 13:32:38;;;;;;;5.80;5.30;;;4.80;99.90;;;;;;5061163;28;20943;-79
2022/04/01 13:35:24;;;;;;;5.20;4.70;;;4.60;99.90;;;;;;5067871;28;20939;-79
2022/04/01 13:38:08;;;;;;;5.97;5.37;;;4.30;99.90;;;;;;5064988;28;20421;-79
2022/04/01 13:40:53;;;;;;;5.80;5.17;;;4.50;99.90;;;;;;5061482;28;20464;-78
2022/04/01 13:43:39;;;;;;;5.90;5.00;;;4.10;99.90;;;;;;5038092;28;20976;-80
2022/04/01 13:46:24;;;;;;;5.40;4.90;;;4.30;99.90;;;;;;5048863;28;20534;-79
2022/04/01 13:49:08;;;;;;;6.90;5.50;;;4.50;99.90;;;;;;5065533;28;20434;-79
2022/04/01 13:51:53;;;;;;;5.70;5.20;;;4.70;99.90;;;;;;5066036;28;20438;-79
2022/04/01 13:54:40;;;;;;;8.30;6.93;;;4.60;99.90;;;;;;5057404;28;20524;-79
2022/04/01 13:57:26;;;;;;;6.23;5.73;;;4.50;99.90;;;;;;5019804;28;20442;-79
2022/04/01 14:00:12;;;;;;;5.33;4.93;;;3.80;99.90;;;;;;5059335;28;20476;-79
2022/04/01 14:02:57;;;;;;;5.33;4.93;;;4.00;99.90;;;;;;5028892;28;20554;-79
2022/04/01 14:05:41;;;;;;;7.10;6.27;;;4.10;99.90;;;;;;5050885;28;20454;-79
2022/04/01 14:08:26;;;;;;;6.53;5.27;;;4.20;99.90;;;;;;5053479;28;20421;-77
2022/04/01 14:11:10;;;;;;;7.63;4.80;;;4.20;99.90;;;;;;5056316;28;20454;-79
2022/04/01 14:13:55;;;;;;;5.20;4.80;;;3.80;99.90;;;;;;5050441;28;20488;-78
2022/04/01 14:16:39;;;;;;;6.60;5.90;;;3.90;99.90;;;;;;5072134;28;20453;-78
2022/04/01 14:19:24;;;;;;;7.20;5.80;;;3.90;99.90;;;;;;5053214;28;20433;-79
2022/04/01 14:22:09;;;;;;;6.60;5.97;;;4.00;99.90;;;;;;5052289;28;20532;-78
2022/04/01 14:24:53;;;;;;;6.57;6.07;;;4.20;99.90;;;;;;5081453;28;20416;-78
2022/04/01 14:27:38;;;;;;;5.70;5.17;;;4.30;99.90;;;;;;5050169;28;20426;-78
2022/04/01 14:30:23;;;;;;;8.53;6.57;;;4.40;99.90;;;;;;5060829;28;20955;-79
2022/04/01 14:33:08;;;;;;;6.57;5.93;;;4.40;99.90;;;;;;5049725;28;20452;-78
2022/04/01 14:35:53;;;;;;;10.00;6.37;;;4.40;99.90;;;;;;5054670;28;20462;-79
2022/04/01 14:38:37;;;;;;;6.80;5.63;;;4.40;99.90;;;;;;5074734;28;20427;-78
2022/04/01 14:41:24;;;;;;;12.80;8.50;;;4.40;99.90;;;;;;5056727;28;20434;-79
2022/04/01 14:44:08;;;;;;;9.33;7.90;;;4.50;99.90;;;;;;5055819;28;20449;-78
2022/04/01 14:46:53;;;;;;;9.70;6.73;;;4.40;99.90;;;;;;5054460;28;20508;-79
2022/04/01 14:49:38;;;;;;;15.17;7.90;;;4.40;99.90;;;;;;5047241;28;20410;-78
2022/04/01 14:52:23;;;;;;;12.53;7.47;;;4.40;99.90;;;;;;5058956;28;20772;-79